sensor_id;sensor_type;location;lat;lon;timestamp;P1;durP1;ratioP1;P2;durP2;ratioP2
24206;SDS011;12351;52.284;9.160;2022-12-19T00:01:23;20.30;;;11.27;;
24206;SDS011;12351;52.284;9.160;2022-12-19T00:04:11;21.77;;;10.87;;
24206;SDS011;12351;52.284;9.160;2022-12-19T00:07:01;21.03;;;11.70;;
24206;SDS011;12351;52.284;9.160;2022-12-19T00:09:49;19.00;;;11.00;;
24206;SDS011;12351;52.284;9.160;2022-12-19T00:12:38;23.60;;;11.40;;
24206;SDS011;12351;52.284;9.160;2022-12-19T00:15:26;20.63;;;10.83;;
24206;SDS011;12351;52.284;9.160;2022-12-19T00:18:15;24.17;;;11.47;;
24206;SDS011;12351;52.284;9.160;2022-12-19T00:21:03;21.43;;;11.10;;
24206;SDS011;12351;52.284;9.160;2022-12-19T00:23:54;20.20;;;11.10;;
24206;SDS011;12351;52.284;9.160;2022-12-19T00:26:42;21.63;;;10.70;;
24206;SDS011;12351;52.284;9.160;2022-12-19T00:29:28;23.50;;;11.20;;
24206;SDS011;12351;52.284;9.160;2022-12-19T00:32:16;21.33;;;11.43;;
24206;SDS011;12351;52.284;9.160;2022-12-19T00:35:03;26.83;;;12.00;;
24206;SDS011;12351;52.284;9.160;2022-12-19T00:37:51;24.27;;;11.63;;
24206;SDS011;12351;52.284;9.160;2022-12-19T00:40:41;22.30;;;12.30;;
24206;SDS011;12351;52.284;9.160;2022-12-19T00:43:29;20.90;;;10.83;;
24206;SDS011;12351;52.284;9.160;2022-12-19T00:46:15;23.00;;;11.73;;
24206;SDS011;12351;52.284;9.160;2022-12-19T00:49:06;22.77;;;12.17;;
24206;SDS011;12351;52.284;9.160;2022-12-19T00:51:55;22.97;;;11.73;;
24206;SDS011;12351;52.284;9.160;2022-12-19T00:54:43;22.73;;;11.90;;
24206;SDS011;12351;52.284;9.160;2022-12-19T00:57:31;24.60;;;12.13;;
24206;SDS011;12351;52.284;9.160;2022-12-19T01:00:20;21.50;;;11.20;;
24206;SDS011;12351;52.284;9.160;2022-12-19T01:03:07;23.87;;;12.33;;
24206;SDS011;12351;52.284;9.160;2022-12-19T01:05:55;25.97;;;12.27;;
24206;SDS011;12351;52.284;9.160;2022-12-19T01:08:44;25.37;;;12.43;;
24206;SDS011;12351;52.284;9.160;2022-12-19T01:11:31;23.70;;;12.47;;
24206;SDS011;12351;52.284;9.160;2022-12-19T01:14:21;24.10;;;12.60;;
24206;SDS011;12351;52.284;9.160;2022-12-19T01:17:10;25.70;;;12.90;;
24206;SDS011;12351;52.284;9.160;2022-12-19T01:19:57;24.73;;;12.70;;
24206;SDS011;12351;52.284;9.160;2022-12-19T01:22:45;25.20;;;12.63;;
24206;SDS011;12351;52.284;9.160;2022-12-19T01:25:33;23.47;;;12.43;;
24206;SDS011;12351;52.284;9.160;2022-12-19T01:28:22;24.37;;;11.67;;
24206;SDS011;12351;52.284;9.160;2022-12-19T01:31:12;25.60;;;12.67;;
24206;SDS011;12351;52.284;9.160;2022-12-19T01:34:01;25.20;;;12.30;;
24206;SDS011;12351;52.284;9.160;2022-12-19T01:36:49;22.27;;;12.53;;
24206;SDS011;12351;52.284;9.160;2022-12-19T01:39:37;23.63;;;12.57;;
24206;SDS011;12351;52.284;9.160;2022-12-19T01:42:25;25.50;;;12.60;;
24206;SDS011;12351;52.284;9.160;2022-12-19T01:50:54;25.93;;;12.67;;
24206;SDS011;12351;52.284;9.160;2022-12-19T01:53:33;24.33;;;11.97;;
24206;SDS011;12351;52.284;9.160;2022-12-19T01:56:23;22.73;;;11.97;;
24206;SDS011;12351;52.284;9.160;2022-12-19T01:59:13;25.00;;;12.90;;
24206;SDS011;12351;52.284;9.160;2022-12-19T02:04:53;26.40;;;12.53;;
24206;SDS011;12351;52.284;9.160;2022-12-19T02:07:40;25.23;;;12.47;;
24206;SDS011;12351;52.284;9.160;2022-12-19T02:10:28;24.93;;;12.83;;
24206;SDS011;12351;52.284;9.160;2022-12-19T02:13:17;25.57;;;12.57;;
24206;SDS011;12351;52.284;9.160;2022-12-19T02:32:59;25.90;;;13.03;;
24206;SDS011;12351;52.284;9.160;2022-12-19T02:41:26;22.90;;;12.43;;
24206;SDS011;12351;52.284;9.160;2022-12-19T02:44:19;28.77;;;12.57;;
24206;SDS011;12351;52.284;9.160;2022-12-19T02:47:07;26.48;;;12.33;;
24206;SDS011;12351;52.284;9.160;2022-12-19T02:49:57;25.37;;;12.43;;
24206;SDS011;12351;52.284;9.160;2022-12-19T02:52:45;24.30;;;12.60;;
24206;SDS011;12351;52.284;9.160;2022-12-19T02:55:34;25.10;;;12.57;;
24206;SDS011;12351;52.284;9.160;2022-12-19T03:12:35;25.20;;;12.33;;
24206;SDS011;12351;52.284;9.160;2022-12-19T03:15:21;24.53;;;12.90;;
24206;SDS011;12351;52.284;9.160;2022-12-19T03:18:11;27.17;;;12.60;;
24206;SDS011;12351;52.284;9.160;2022-12-19T03:23:40;27.07;;;13.87;;
24206;SDS011;12351;52.284;9.160;2022-12-19T03:26:31;25.63;;;13.30;;
24206;SDS011;12351;52.284;9.160;2022-12-19T03:29:21;23.07;;;12.33;;
24206;SDS011;12351;52.284;9.160;2022-12-19T03:32:12;27.70;;;14.23;;
24206;SDS011;12351;52.284;9.160;2022-12-19T03:35:02;26.13;;;13.50;;
24206;SDS011;12351;52.284;9.160;2022-12-19T03:37:50;23.80;;;13.17;;
24206;SDS011;12351;52.284;9.160;2022-12-19T03:40:41;25.67;;;12.97;;
24206;SDS011;12351;52.284;9.160;2022-12-19T03:43:29;24.50;;;12.63;;
24206;SDS011;12351;52.284;9.160;2022-12-19T03:46:21;24.97;;;12.77;;
24206;SDS011;12351;52.284;9.160;2022-12-19T03:49:10;25.77;;;12.67;;
24206;SDS011;12351;52.284;9.160;2022-12-19T03:54:50;25.87;;;13.20;;
24206;SDS011;12351;52.284;9.160;2022-12-19T04:00:27;25.17;;;12.87;;
24206;SDS011;12351;52.284;9.160;2022-12-19T04:03:16;25.63;;;13.43;;
24206;SDS011;12351;52.284;9.160;2022-12-19T04:06:06;25.03;;;12.83;;
24206;SDS011;12351;52.284;9.160;2022-12-19T04:08:53;23.90;;;12.60;;
24206;SDS011;12351;52.284;9.160;2022-12-19T04:11:42;25.57;;;12.70;;
24206;SDS011;12351;52.284;9.160;2022-12-19T04:14:34;21.93;;;11.80;;
24206;SDS011;12351;52.284;9.160;2022-12-19T04:20:11;23.47;;;11.60;;
24206;SDS011;12351;52.284;9.160;2022-12-19T04:23:02;21.40;;;11.60;;
24206;SDS011;12351;52.284;9.160;2022-12-19T04:25:52;22.47;;;12.03;;
24206;SDS011;12351;52.284;9.160;2022-12-19T04:28:42;23.73;;;12.50;;
24206;SDS011;12351;52.284;9.160;2022-12-19T04:31:29;26.20;;;12.80;;
24206;SDS011;12351;52.284;9.160;2022-12-19T04:34:20;24.87;;;12.60;;
24206;SDS011;12351;52.284;9.160;2022-12-19T04:37:06;21.33;;;12.27;;
24206;SDS011;12351;52.284;9.160;2022-12-19T04:39:53;21.23;;;12.27;;
24206;SDS011;12351;52.284;9.160;2022-12-19T04:42:41;24.10;;;13.33;;
24206;SDS011;12351;52.284;9.160;2022-12-19T04:45:29;25.40;;;13.47;;
24206;SDS011;12351;52.284;9.160;2022-12-19T04:48:18;25.30;;;12.43;;
24206;SDS011;12351;52.284;9.160;2022-12-19T04:51:04;24.07;;;12.53;;
24206;SDS011;12351;52.284;9.160;2022-12-19T04:53:53;26.13;;;13.03;;
24206;SDS011;12351;52.284;9.160;2022-12-19T04:56:44;26.37;;;13.53;;
24206;SDS011;12351;52.284;9.160;2022-12-19T04:59:33;25.37;;;12.97;;
24206;SDS011;12351;52.284;9.160;2022-12-19T05:02:23;22.80;;;12.27;;
24206;SDS011;12351;52.284;9.160;2022-12-19T05:05:12;24.57;;;13.13;;
24206;SDS011;12351;52.284;9.160;2022-12-19T05:08:04;25.03;;;13.40;;
24206;SDS011;12351;52.284;9.160;2022-12-19T05:10:57;25.00;;;13.00;;
24206;SDS011;12351;52.284;9.160;2022-12-19T05:13:42;24.63;;;13.57;;
24206;SDS011;12351;52.284;9.160;2022-12-19T05:16:35;24.13;;;12.67;;
24206;SDS011;12351;52.284;9.160;2022-12-19T05:19:22;24.87;;;12.90;;
24206;SDS011;12351;52.284;9.160;2022-12-19T05:22:10;24.90;;;12.23;;
24206;SDS011;12351;52.284;9.160;2022-12-19T05:24:58;22.40;;;12.10;;
24206;SDS011;12351;52.284;9.160;2022-12-19T05:27:49;21.87;;;11.10;;
24206;SDS011;12351;52.284;9.160;2022-12-19T05:30:40;23.90;;;12.57;;
24206;SDS011;12351;52.284;9.160;2022-12-19T05:33:30;25.13;;;12.43;;
24206;SDS011;12351;52.284;9.160;2022-12-19T05:36:19;26.20;;;13.10;;
24206;SDS011;12351;52.284;9.160;2022-12-19T05:39:08;21.97;;;12.33;;
24206;SDS011;12351;52.284;9.160;2022-12-19T05:41:57;25.93;;;12.87;;
24206;SDS011;12351;52.284;9.160;2022-12-19T05:44:48;24.10;;;12.57;;
24206;SDS011;12351;52.284;9.160;2022-12-19T05:47:40;24.97;;;13.23;;
24206;SDS011;12351;52.284;9.160;2022-12-19T05:50:31;24.73;;;12.97;;
24206;SDS011;12351;52.284;9.160;2022-12-19T05:53:20;26.57;;;13.27;;
24206;SDS011;12351;52.284;9.160;2022-12-19T05:56:12;25.75;;;13.90;;
24206;SDS011;12351;52.284;9.160;2022-12-19T05:59:01;23.00;;;12.20;;
24206;SDS011;12351;52.284;9.160;2022-12-19T06:01:50;22.67;;;12.70;;
24206;SDS011;12351;52.284;9.160;2022-12-19T06:04:41;21.47;;;12.67;;
24206;SDS011;12351;52.284;9.160;2022-12-19T06:07:27;25.87;;;13.10;;
24206;SDS011;12351;52.284;9.160;2022-12-19T06:10:17;22.43;;;12.87;;
24206;SDS011;12351;52.284;9.160;2022-12-19T06:13:05;22.33;;;12.07;;
24206;SDS011;12351;52.284;9.160;2022-12-19T06:18:45;24.60;;;12.30;;
24206;SDS011;12351;52.284;9.160;2022-12-19T06:21:34;22.27;;;12.43;;
24206;SDS011;12351;52.284;9.160;2022-12-19T06:24:23;22.97;;;12.67;;
24206;SDS011;12351;52.284;9.160;2022-12-19T06:27:14;22.63;;;13.13;;
24206;SDS011;12351;52.284;9.160;2022-12-19T06:30:02;24.60;;;13.17;;
24206;SDS011;12351;52.284;9.160;2022-12-19T06:32:52;23.67;;;12.67;;
24206;SDS011;12351;52.284;9.160;2022-12-19T06:35:38;23.97;;;12.73;;
24206;SDS011;12351;52.284;9.160;2022-12-19T06:38:26;29.07;;;13.87;;
24206;SDS011;12351;52.284;9.160;2022-12-19T06:41:15;26.10;;;13.60;;
24206;SDS011;12351;52.284;9.160;2022-12-19T06:44:06;26.23;;;14.13;;
24206;SDS011;12351;52.284;9.160;2022-12-19T06:46:54;25.57;;;13.77;;
24206;SDS011;12351;52.284;9.160;2022-12-19T06:49:41;30.63;;;13.80;;
24206;SDS011;12351;52.284;9.160;2022-12-19T06:52:33;25.60;;;13.85;;
24206;SDS011;12351;52.284;9.160;2022-12-19T06:55:19;27.90;;;13.57;;
24206;SDS011;12351;52.284;9.160;2022-12-19T06:58:09;28.20;;;14.80;;
24206;SDS011;12351;52.284;9.160;2022-12-19T07:01:00;29.40;;;14.97;;
24206;SDS011;12351;52.284;9.160;2022-12-19T07:03:46;29.30;;;15.50;;
24206;SDS011;12351;52.284;9.160;2022-12-19T07:06:33;30.20;;;14.87;;
24206;SDS011;12351;52.284;9.160;2022-12-19T07:09:23;27.17;;;14.90;;
24206;SDS011;12351;52.284;9.160;2022-12-19T07:12:13;29.40;;;15.20;;
24206;SDS011;12351;52.284;9.160;2022-12-19T07:15:01;28.47;;;15.77;;
24206;SDS011;12351;52.284;9.160;2022-12-19T07:17:48;28.63;;;15.40;;
24206;SDS011;12351;52.284;9.160;2022-12-19T07:20:36;26.80;;;14.43;;
24206;SDS011;12351;52.284;9.160;2022-12-19T07:23:26;28.03;;;15.20;;
24206;SDS011;12351;52.284;9.160;2022-12-19T07:26:16;31.50;;;16.00;;
24206;SDS011;12351;52.284;9.160;2022-12-19T07:29:03;27.90;;;14.33;;
24206;SDS011;12351;52.284;9.160;2022-12-19T07:31:49;30.33;;;15.40;;
24206;SDS011;12351;52.284;9.160;2022-12-19T07:34:40;27.37;;;14.35;;
24206;SDS011;12351;52.284;9.160;2022-12-19T07:37:27;29.30;;;15.30;;
24206;SDS011;12351;52.284;9.160;2022-12-19T07:40:14;28.17;;;15.33;;
24206;SDS011;12351;52.284;9.160;2022-12-19T07:43:02;30.17;;;14.70;;
24206;SDS011;12351;52.284;9.160;2022-12-19T07:48:39;28.03;;;14.20;;
24206;SDS011;12351;52.284;9.160;2022-12-19T07:51:27;25.70;;;13.43;;
24206;SDS011;12351;52.284;9.160;2022-12-19T07:54:14;28.30;;;14.20;;
24206;SDS011;12351;52.284;9.160;2022-12-19T07:57:03;26.07;;;13.63;;
24206;SDS011;12351;52.284;9.160;2022-12-19T07:59:52;25.30;;;13.33;;
24206;SDS011;12351;52.284;9.160;2022-12-19T08:02:38;25.10;;;13.37;;
24206;SDS011;12351;52.284;9.160;2022-12-19T08:05:26;22.77;;;12.97;;
24206;SDS011;12351;52.284;9.160;2022-12-19T08:08:14;27.37;;;13.57;;
24206;SDS011;12351;52.284;9.160;2022-12-19T08:13:54;25.57;;;13.10;;
24206;SDS011;12351;52.284;9.160;2022-12-19T08:16:41;23.90;;;12.67;;
24206;SDS011;12351;52.284;9.160;2022-12-19T08:19:29;23.00;;;12.93;;
24206;SDS011;12351;52.284;9.160;2022-12-19T08:22:17;25.40;;;13.60;;
24206;SDS011;12351;52.284;9.160;2022-12-19T08:25:05;22.20;;;12.13;;
24206;SDS011;12351;52.284;9.160;2022-12-19T08:27:53;24.40;;;12.25;;
24206;SDS011;12351;52.284;9.160;2022-12-19T08:30:43;23.80;;;12.53;;
24206;SDS011;12351;52.284;9.160;2022-12-19T08:33:30;24.85;;;12.50;;
24206;SDS011;12351;52.284;9.160;2022-12-19T08:36:20;19.30;;;10.30;;
24206;SDS011;12351;52.284;9.160;2022-12-19T08:39:08;18.92;;;10.20;;
24206;SDS011;12351;52.284;9.160;2022-12-19T08:41:56;17.47;;;9.60;;
24206;SDS011;12351;52.284;9.160;2022-12-19T08:44:47;17.27;;;9.90;;
24206;SDS011;12351;52.284;9.160;2022-12-19T08:47:35;15.68;;;8.58;;
24206;SDS011;12351;52.284;9.160;2022-12-19T08:50:24;15.63;;;9.18;;
24206;SDS011;12351;52.284;9.160;2022-12-19T08:53:13;15.72;;;8.78;;
24206;SDS011;12351;52.284;9.160;2022-12-19T08:56:05;13.58;;;7.85;;
24206;SDS011;12351;52.284;9.160;2022-12-19T08:58:56;16.80;;;8.70;;
24206;SDS011;12351;52.284;9.160;2022-12-19T09:01:47;14.95;;;8.45;;
24206;SDS011;12351;52.284;9.160;2022-12-19T09:04:36;12.95;;;7.97;;
24206;SDS011;12351;52.284;9.160;2022-12-19T09:07:29;12.82;;;7.58;;
24206;SDS011;12351;52.284;9.160;2022-12-19T09:10:20;14.60;;;8.15;;
24206;SDS011;12351;52.284;9.160;2022-12-19T09:13:12;15.25;;;8.63;;
24206;SDS011;12351;52.284;9.160;2022-12-19T09:16:01;16.90;;;8.90;;
24206;SDS011;12351;52.284;9.160;2022-12-19T09:18:52;13.45;;;8.13;;
24206;SDS011;12351;52.284;9.160;2022-12-19T09:21:42;13.70;;;7.58;;
24206;SDS011;12351;52.284;9.160;2022-12-19T09:24:32;14.35;;;8.00;;
24206;SDS011;12351;52.284;9.160;2022-12-19T09:27:22;12.95;;;7.28;;
24206;SDS011;12351;52.284;9.160;2022-12-19T09:30:15;15.55;;;8.05;;
24206;SDS011;12351;52.284;9.160;2022-12-19T09:33:05;11.45;;;7.55;;
24206;SDS011;12351;52.284;9.160;2022-12-19T09:35:56;15.23;;;7.90;;
24206;SDS011;12351;52.284;9.160;2022-12-19T09:38:45;13.43;;;7.78;;
24206;SDS011;12351;52.284;9.160;2022-12-19T09:47:17;10.08;;;6.75;;
24206;SDS011;12351;52.284;9.160;2022-12-19T09:53:01;12.98;;;7.47;;
24206;SDS011;12351;52.284;9.160;2022-12-19T09:55:50;11.20;;;7.03;;
24206;SDS011;12351;52.284;9.160;2022-12-19T09:58:43;12.55;;;7.42;;
24206;SDS011;12351;52.284;9.160;2022-12-19T10:01:32;10.60;;;6.62;;
24206;SDS011;12351;52.284;9.160;2022-12-19T10:04:23;12.70;;;7.67;;
24206;SDS011;12351;52.284;9.160;2022-12-19T10:07:13;14.15;;;8.00;;
24206;SDS011;12351;52.284;9.160;2022-12-19T10:10:03;14.18;;;8.28;;
24206;SDS011;12351;52.284;9.160;2022-12-19T10:27:11;12.68;;;7.67;;
24206;SDS011;12351;52.284;9.160;2022-12-19T10:30:01;13.58;;;7.95;;
24206;SDS011;12351;52.284;9.160;2022-12-19T10:35:41;13.62;;;7.72;;
24206;SDS011;12351;52.284;9.160;2022-12-19T10:38:35;13.20;;;8.30;;
24206;SDS011;12351;52.284;9.160;2022-12-19T10:41:23;12.25;;;8.08;;
24206;SDS011;12351;52.284;9.160;2022-12-19T10:44:12;14.00;;;8.58;;
24206;SDS011;12351;52.284;9.160;2022-12-19T10:47:02;14.35;;;8.60;;
24206;SDS011;12351;52.284;9.160;2022-12-19T10:49:49;12.85;;;8.48;;
24206;SDS011;12351;52.284;9.160;2022-12-19T10:58:23;13.62;;;8.15;;
24206;SDS011;12351;52.284;9.160;2022-12-19T11:01:11;13.55;;;9.10;;
24206;SDS011;12351;52.284;9.160;2022-12-19T11:09:44;13.35;;;8.15;;
24206;SDS011;12351;52.284;9.160;2022-12-19T11:12:32;12.13;;;7.55;;
24206;SDS011;12351;52.284;9.160;2022-12-19T11:15:20;11.80;;;8.18;;
24206;SDS011;12351;52.284;9.160;2022-12-19T11:18:11;10.25;;;7.78;;
24206;SDS011;12351;52.284;9.160;2022-12-19T11:21:03;12.90;;;8.35;;
24206;SDS011;12351;52.284;9.160;2022-12-19T11:23:52;13.13;;;8.35;;
24206;SDS011;12351;52.284;9.160;2022-12-19T11:26:43;11.28;;;7.45;;
24206;SDS011;12351;52.284;9.160;2022-12-19T11:38:07;14.80;;;8.75;;
24206;SDS011;12351;52.284;9.160;2022-12-19T11:40:57;13.03;;;8.03;;
24206;SDS011;12351;52.284;9.160;2022-12-19T11:49:30;13.78;;;8.83;;
24206;SDS011;12351;52.284;9.160;2022-12-19T11:58:01;13.53;;;8.50;;
24206;SDS011;12351;52.284;9.160;2022-12-19T12:00:50;12.37;;;9.05;;
24206;SDS011;12351;52.284;9.160;2022-12-19T12:06:31;13.62;;;9.03;;
24206;SDS011;12351;52.284;9.160;2022-12-19T12:09:24;13.43;;;9.30;;
24206;SDS011;12351;52.284;9.160;2022-12-19T12:23:24;15.72;;;9.75;;
24206;SDS011;12351;52.284;9.160;2022-12-19T12:34:49;15.20;;;9.83;;
24206;SDS011;12351;52.284;9.160;2022-12-19T12:49:04;16.12;;;10.25;;
24206;SDS011;12351;52.284;9.160;2022-12-19T12:51:53;15.85;;;9.75;;
24206;SDS011;12351;52.284;9.160;2022-12-19T12:54:44;15.08;;;9.98;;
24206;SDS011;12351;52.284;9.160;2022-12-19T12:57:35;14.10;;;9.30;;
24206;SDS011;12351;52.284;9.160;2022-12-19T13:00:27;14.78;;;9.50;;
24206;SDS011;12351;52.284;9.160;2022-12-19T13:03:15;15.72;;;10.03;;
24206;SDS011;12351;52.284;9.160;2022-12-19T13:06:10;13.75;;;9.35;;
24206;SDS011;12351;52.284;9.160;2022-12-19T13:11:47;16.17;;;9.53;;
24206;SDS011;12351;52.284;9.160;2022-12-19T13:25:52;14.80;;;9.75;;
24206;SDS011;12351;52.284;9.160;2022-12-19T13:28:41;14.60;;;9.20;;
24206;SDS011;12351;52.284;9.160;2022-12-19T13:31:30;15.10;;;9.55;;
24206;SDS011;12351;52.284;9.160;2022-12-19T13:34:18;16.73;;;9.70;;
24206;SDS011;12351;52.284;9.160;2022-12-19T13:39:46;16.12;;;10.20;;
24206;SDS011;12351;52.284;9.160;2022-12-19T13:42:35;17.85;;;10.38;;
24206;SDS011;12351;52.284;9.160;2022-12-19T13:45:26;15.00;;;9.70;;
24206;SDS011;12351;52.284;9.160;2022-12-19T13:48:16;16.57;;;9.88;;
24206;SDS011;12351;52.284;9.160;2022-12-19T13:51:06;14.70;;;9.43;;
24206;SDS011;12351;52.284;9.160;2022-12-19T13:53:55;13.58;;;9.20;;
24206;SDS011;12351;52.284;9.160;2022-12-19T13:56:45;14.93;;;9.53;;
24206;SDS011;12351;52.284;9.160;2022-12-19T13:59:32;15.48;;;9.00;;
24206;SDS011;12351;52.284;9.160;2022-12-19T14:02:25;13.05;;;8.43;;
24206;SDS011;12351;52.284;9.160;2022-12-19T14:05:18;15.03;;;8.75;;
24206;SDS011;12351;52.284;9.160;2022-12-19T14:08:03;13.70;;;8.60;;
24206;SDS011;12351;52.284;9.160;2022-12-19T14:10:54;13.55;;;8.83;;
24206;SDS011;12351;52.284;9.160;2022-12-19T14:13:43;15.25;;;8.73;;
24206;SDS011;12351;52.284;9.160;2022-12-19T14:16:33;12.93;;;8.13;;
24206;SDS011;12351;52.284;9.160;2022-12-19T14:19:23;11.73;;;8.10;;
24206;SDS011;12351;52.284;9.160;2022-12-19T14:25:04;14.33;;;7.70;;
24206;SDS011;12351;52.284;9.160;2022-12-19T14:27:58;11.03;;;7.28;;
24206;SDS011;12351;52.284;9.160;2022-12-19T14:30:49;13.85;;;8.50;;
24206;SDS011;12351;52.284;9.160;2022-12-19T14:33:39;12.93;;;7.97;;
24206;SDS011;12351;52.284;9.160;2022-12-19T14:36:30;12.93;;;8.18;;
24206;SDS011;12351;52.284;9.160;2022-12-19T14:39:18;12.37;;;8.30;;
24206;SDS011;12351;52.284;9.160;2022-12-19T14:42:12;12.95;;;7.78;;
24206;SDS011;12351;52.284;9.160;2022-12-19T14:45:00;11.12;;;7.58;;
24206;SDS011;12351;52.284;9.160;2022-12-19T14:47:50;13.83;;;8.53;;
24206;SDS011;12351;52.284;9.160;2022-12-19T14:50:37;13.30;;;8.20;;
24206;SDS011;12351;52.284;9.160;2022-12-19T14:53:25;12.25;;;8.13;;
24206;SDS011;12351;52.284;9.160;2022-12-19T14:56:15;11.60;;;7.78;;
24206;SDS011;12351;52.284;9.160;2022-12-19T15:01:59;10.82;;;6.50;;
24206;SDS011;12351;52.284;9.160;2022-12-19T15:04:48;12.53;;;7.60;;
24206;SDS011;12351;52.284;9.160;2022-12-19T15:07:39;11.55;;;7.58;;
24206;SDS011;12351;52.284;9.160;2022-12-19T15:15:57;12.27;;;7.90;;
24206;SDS011;12351;52.284;9.160;2022-12-19T15:18:45;13.78;;;8.30;;
24206;SDS011;12351;52.284;9.160;2022-12-19T15:21:33;11.48;;;7.55;;
24206;SDS011;12351;52.284;9.160;2022-12-19T15:24:20;11.35;;;7.62;;
24206;SDS011;12351;52.284;9.160;2022-12-19T15:27:11;11.55;;;7.78;;
24206;SDS011;12351;52.284;9.160;2022-12-19T15:30:02;10.70;;;7.17;;
24206;SDS011;12351;52.284;9.160;2022-12-19T15:32:52;11.40;;;7.45;;
24206;SDS011;12351;52.284;9.160;2022-12-19T15:35:41;10.98;;;7.25;;
24206;SDS011;12351;52.284;9.160;2022-12-19T15:38:29;11.50;;;7.65;;
24206;SDS011;12351;52.284;9.160;2022-12-19T15:41:19;11.73;;;7.50;;
24206;SDS011;12351;52.284;9.160;2022-12-19T15:44:08;10.58;;;7.15;;
24206;SDS011;12351;52.284;9.160;2022-12-19T15:46:57;11.55;;;7.30;;
24206;SDS011;12351;52.284;9.160;2022-12-19T15:49:49;11.45;;;7.22;;
24206;SDS011;12351;52.284;9.160;2022-12-19T15:52:36;11.83;;;7.12;;
24206;SDS011;12351;52.284;9.160;2022-12-19T15:55:25;10.10;;;6.90;;
24206;SDS011;12351;52.284;9.160;2022-12-19T15:58:14;9.93;;;6.67;;
24206;SDS011;12351;52.284;9.160;2022-12-19T16:01:04;10.38;;;6.83;;
24206;SDS011;12351;52.284;9.160;2022-12-19T16:03:55;12.43;;;6.90;;
24206;SDS011;12351;52.284;9.160;2022-12-19T16:06:45;11.25;;;6.90;;
24206;SDS011;12351;52.284;9.160;2022-12-19T16:09:32;11.45;;;7.00;;
24206;SDS011;12351;52.284;9.160;2022-12-19T16:12:23;9.60;;;6.22;;
24206;SDS011;12351;52.284;9.160;2022-12-19T16:15:13;10.83;;;7.13;;
24206;SDS011;12351;52.284;9.160;2022-12-19T16:18:05;9.75;;;6.00;;
24206;SDS011;12351;52.284;9.160;2022-12-19T16:20:52;11.65;;;6.75;;
24206;SDS011;12351;52.284;9.160;2022-12-19T16:23:40;10.08;;;6.90;;
24206;SDS011;12351;52.284;9.160;2022-12-19T16:29:20;11.90;;;7.37;;
24206;SDS011;12351;52.284;9.160;2022-12-19T16:32:11;11.85;;;6.30;;
24206;SDS011;12351;52.284;9.160;2022-12-19T16:34:58;11.12;;;7.25;;
24206;SDS011;12351;52.284;9.160;2022-12-19T16:37:45;10.65;;;7.10;;
24206;SDS011;12351;52.284;9.160;2022-12-19T16:40:33;10.70;;;7.40;;
24206;SDS011;12351;52.284;9.160;2022-12-19T16:46:15;10.00;;;6.00;;
24206;SDS011;12351;52.284;9.160;2022-12-19T16:49:04;9.63;;;6.60;;
24206;SDS011;12351;52.284;9.160;2022-12-19T16:51:54;10.08;;;6.33;;
24206;SDS011;12351;52.284;9.160;2022-12-19T16:54:42;11.80;;;7.03;;
24206;SDS011;12351;52.284;9.160;2022-12-19T16:57:33;11.25;;;7.25;;
24206;SDS011;12351;52.284;9.160;2022-12-19T17:00:21;11.35;;;7.22;;
24206;SDS011;12351;52.284;9.160;2022-12-19T17:06:00;13.05;;;8.10;;
24206;SDS011;12351;52.284;9.160;2022-12-19T17:08:49;11.63;;;6.70;;
24206;SDS011;12351;52.284;9.160;2022-12-19T17:11:39;9.58;;;6.50;;
24206;SDS011;12351;52.284;9.160;2022-12-19T17:14:30;10.60;;;7.42;;
24206;SDS011;12351;52.284;9.160;2022-12-19T17:17:20;13.40;;;7.95;;
24206;SDS011;12351;52.284;9.160;2022-12-19T17:20:11;12.40;;;8.23;;
24206;SDS011;12351;52.284;9.160;2022-12-19T17:22:57;13.62;;;8.63;;
24206;SDS011;12351;52.284;9.160;2022-12-19T17:25:45;12.55;;;8.48;;
24206;SDS011;12351;52.284;9.160;2022-12-19T17:28:33;13.03;;;8.55;;
24206;SDS011;12351;52.284;9.160;2022-12-19T17:31:23;14.35;;;8.85;;
24206;SDS011;12351;52.284;9.160;2022-12-19T17:34:15;14.78;;;9.78;;
24206;SDS011;12351;52.284;9.160;2022-12-19T17:37:03;14.13;;;8.78;;
24206;SDS011;12351;52.284;9.160;2022-12-19T17:39:51;9.03;;;6.05;;
24206;SDS011;12351;52.284;9.160;2022-12-19T17:42:40;14.18;;;8.78;;
24206;SDS011;12351;52.284;9.160;2022-12-19T17:45:29;13.25;;;9.23;;
24206;SDS011;12351;52.284;9.160;2022-12-19T17:48:24;14.78;;;8.68;;
24206;SDS011;12351;52.284;9.160;2022-12-19T17:51:11;13.48;;;8.35;;
24206;SDS011;12351;52.284;9.160;2022-12-19T17:54:01;10.80;;;6.80;;
24206;SDS011;12351;52.284;9.160;2022-12-19T17:56:51;12.30;;;6.95;;
24206;SDS011;12351;52.284;9.160;2022-12-19T17:59:41;12.88;;;8.08;;
24206;SDS011;12351;52.284;9.160;2022-12-19T18:02:30;11.75;;;7.60;;
24206;SDS011;12351;52.284;9.160;2022-12-19T18:05:20;14.58;;;8.60;;
24206;SDS011;12351;52.284;9.160;2022-12-19T18:11:01;15.25;;;9.28;;
24206;SDS011;12351;52.284;9.160;2022-12-19T18:13:52;15.98;;;9.73;;
24206;SDS011;12351;52.284;9.160;2022-12-19T18:16:42;15.45;;;9.70;;
24206;SDS011;12351;52.284;9.160;2022-12-19T18:19:32;15.68;;;9.60;;
24206;SDS011;12351;52.284;9.160;2022-12-19T18:22:20;15.68;;;8.88;;
24206;SDS011;12351;52.284;9.160;2022-12-19T18:25:13;12.43;;;7.90;;
24206;SDS011;12351;52.284;9.160;2022-12-19T18:28:02;13.30;;;8.53;;
24206;SDS011;12351;52.284;9.160;2022-12-19T18:30:52;12.53;;;8.13;;
24206;SDS011;12351;52.284;9.160;2022-12-19T18:33:42;17.85;;;10.23;;
24206;SDS011;12351;52.284;9.160;2022-12-19T18:36:35;12.60;;;8.28;;
24206;SDS011;12351;52.284;9.160;2022-12-19T18:39:24;14.00;;;7.37;;
24206;SDS011;12351;52.284;9.160;2022-12-19T18:42:17;11.53;;;7.95;;
24206;SDS011;12351;52.284;9.160;2022-12-19T18:45:07;10.55;;;7.60;;
24206;SDS011;12351;52.284;9.160;2022-12-19T18:47:57;11.75;;;7.95;;
24206;SDS011;12351;52.284;9.160;2022-12-19T18:50:48;11.78;;;7.47;;
24206;SDS011;12351;52.284;9.160;2022-12-19T18:53:36;12.25;;;8.13;;
24206;SDS011;12351;52.284;9.160;2022-12-19T18:56:27;12.05;;;8.08;;
24206;SDS011;12351;52.284;9.160;2022-12-19T18:59:15;10.70;;;7.40;;
24206;SDS011;12351;52.284;9.160;2022-12-19T19:02:08;9.68;;;6.67;;
24206;SDS011;12351;52.284;9.160;2022-12-19T19:04:54;10.35;;;6.90;;
24206;SDS011;12351;52.284;9.160;2022-12-19T19:07:42;12.55;;;7.05;;
24206;SDS011;12351;52.284;9.160;2022-12-19T19:10:30;10.48;;;6.87;;
24206;SDS011;12351;52.284;9.160;2022-12-19T19:13:19;9.83;;;6.95;;
24206;SDS011;12351;52.284;9.160;2022-12-19T19:16:12;11.60;;;6.75;;
24206;SDS011;12351;52.284;9.160;2022-12-19T19:18:59;13.10;;;7.35;;
24206;SDS011;12351;52.284;9.160;2022-12-19T19:21:46;11.25;;;6.92;;
24206;SDS011;12351;52.284;9.160;2022-12-19T19:24:34;9.70;;;6.05;;
24206;SDS011;12351;52.284;9.160;2022-12-19T19:27:22;7.70;;;5.42;;
24206;SDS011;12351;52.284;9.160;2022-12-19T19:30:11;10.63;;;6.05;;
24206;SDS011;12351;52.284;9.160;2022-12-19T19:33:02;11.03;;;6.75;;
24206;SDS011;12351;52.284;9.160;2022-12-19T19:35:51;9.38;;;6.47;;
24206;SDS011;12351;52.284;9.160;2022-12-19T19:38:41;9.48;;;6.60;;
24206;SDS011;12351;52.284;9.160;2022-12-19T19:41:29;9.15;;;6.25;;
24206;SDS011;12351;52.284;9.160;2022-12-19T19:44:18;10.48;;;6.40;;
24206;SDS011;12351;52.284;9.160;2022-12-19T19:47:06;9.70;;;6.20;;
24206;SDS011;12351;52.284;9.160;2022-12-19T19:49:56;10.85;;;6.35;;
24206;SDS011;12351;52.284;9.160;2022-12-19T19:52:44;8.35;;;5.87;;